Time;durP1;ratioP1;P1;durP2;ratioP2;P2;SDS_P1;SDS_P2;PMS_P1;PMS_P2;Temp;Humidity;BMP_temperature;BMP_pressure;BME280_temperature;BME280_humidity;BME280_pressure;Samples;Min_cycle;Max_cycle;Signal;HPM_P1;HPM_P2
2023/05/05 00:00:58;;;;;;;5.40;4.25;;;;;;;11.72;56.16;98328.97;4955542;28;20035;-73
2023/05/05 00:03:24;;;;;;;6.50;3.95;;;;;;;11.59;57.96;98324.72;4939284;28;20038;-73
2023/05/05 00:05:53;;;;;;;9.40;4.22;;;;;;;11.70;56.98;98325.72;4939453;28;20039;-74
2023/05/05 00:08:18;;;;;;;5.60;4.25;;;;;;;11.63;56.98;98325.03;4939574;28;20414;-74
2023/05/05 00:10:45;;;;;;;4.82;4.30;;;;;;;11.37;57.37;98323.84;4965103;28;20054;-74
2023/05/05 00:13:10;;;;;;;4.72;4.22;;;;;;;11.18;59.26;98332.44;4955428;28;20539;-74
2023/05/05 00:15:36;;;;;;;8.52;4.60;;;;;;;11.48;58.47;98327.53;4939185;28;20518;-73
2023/05/05 00:18:01;;;;;;;5.32;4.22;;;;;;;11.40;59.32;98327.91;4947909;28;20094;-74
2023/05/05 00:20:26;;;;;;;5.95;4.50;;;;;;;11.37;58.94;98328.41;4939389;28;20042;-74
2023/05/05 00:22:52;;;;;;;7.70;4.63;;;;;;;11.23;59.89;98332.50;4972442;28;20401;-74
2023/05/05 00:25:17;;;;;;;6.50;4.32;;;;;;;11.38;58.74;98327.34;4955073;28;20050;-73
2023/05/05 00:27:42;;;;;;;7.93;4.70;;;;;;;11.17;59.72;98331.59;4939117;28;20033;-73
2023/05/05 00:30:08;;;;;;;5.25;4.35;;;;;;;11.22;58.94;98330.88;4939461;28;20034;-73
2023/05/05 00:32:33;;;;;;;6.32;4.18;;;;;;;11.13;60.21;98335.88;4955125;28;20089;-74
2023/05/05 00:34:59;;;;;;;5.53;4.20;;;;;;;11.30;59.29;98336.66;4940809;28;20039;-74
2023/05/05 00:37:24;;;;;;;6.80;4.80;;;;;;;11.16;59.84;98335.34;4942948;28;20046;-73
2023/05/05 00:39:50;;;;;;;5.00;4.18;;;;;;;11.02;60.32;98340.25;4958984;28;20611;-74
2023/05/05 00:42:15;;;;;;;6.47;4.22;;;;;;;11.18;58.91;98330.53;4976222;28;20018;-74
2023/05/05 00:44:41;;;;;;;4.93;4.40;;;;;;;11.17;60.44;98331.59;4974451;28;20049;-74
2023/05/05 00:47:08;;;;;;;7.60;4.10;;;;;;;11.18;60.55;98322.44;4958631;28;20078;-74
2023/05/05 00:49:34;;;;;;;5.63;4.00;;;;;;;11.02;61.11;98318.69;4942556;28;20049;-74
2023/05/05 00:51:59;;;;;;;5.65;4.43;;;;;;;11.00;61.01;98312.72;4926862;28;20031;-74
2023/05/05 00:54:25;;;;;;;6.93;4.53;;;;;;;11.02;61.47;98307.91;4926514;28;20125;-73
2023/05/05 00:56:50;;;;;;;8.20;5.38;;;;;;;10.98;60.92;98301.38;4976235;28;20489;-73
2023/05/05 00:59:16;;;;;;;6.72;5.00;;;;;;;10.77;61.63;98299.41;4958598;28;20117;-73
2023/05/05 01:01:42;;;;;;;6.45;5.20;;;;;;;10.69;62.69;98307.88;4942685;28;20038;-73
2023/05/05 01:04:07;;;;;;;7.90;4.75;;;;;;;10.50;62.80;98298.38;4957991;28;20042;-73
2023/05/05 01:06:58;;;;;;;7.38;4.97;;;;;;;10.64;62.87;98304.28;4958519;28;20026;-72
2023/05/05 01:09:46;;;;;;;7.18;5.32;;;;;;;10.63;62.53;98302.63;4969063;28;20476;-72
2023/05/05 01:12:26;;;;;;;5.30;4.68;;;;;;;10.72;62.70;98296.63;4967486;28;20042;-73
2023/05/05 01:15:00;;;;;;;7.55;5.47;;;;;;;10.50;64.45;98293.00;4952354;28;20037;-73
2023/05/05 01:17:42;;;;;;;5.93;5.15;;;;;;;10.51;63.96;98299.19;4956374;28;20408;-73
2023/05/05 01:20:21;;;;;;;10.13;5.47;;;;;;;10.44;64.93;98293.94;4942269;28;20061;-73
2023/05/05 01:22:51;;;;;;;6.57;5.57;;;;;;;10.36;65.07;98297.84;4958131;28;20048;-74
2023/05/05 01:25:54;;;;;;;11.32;5.72;;;;;;;10.42;64.62;98301.44;4973986;28;20117;-74
2023/05/05 01:28:30;;;;;;;9.10;5.95;;;;;;;10.14;65.30;98294.19;4977221;28;20101;-74
2023/05/05 01:31:07;;;;;;;6.97;6.05;;;;;;;10.33;65.15;98297.50;4945083;28;20045;-73
2023/05/05 01:33:37;;;;;;;7.65;5.95;;;;;;;10.21;64.76;98304.81;4960896;28;20035;-73
2023/05/05 01:36:07;;;;;;;7.13;5.85;;;;;;;10.28;65.11;98300.09;4999162;23;20053;-77
2023/05/05 01:38:39;;;;;;;7.53;5.22;;;;;;;10.41;64.47;98289.84;4994935;28;20030;-75
2023/05/05 01:41:16;;;;;;;6.32;5.70;;;;;;;10.29;65.32;98290.97;4995979;28;20057;-75
2023/05/05 01:43:44;;;;;;;7.90;5.82;;;;;;;10.27;65.65;98288.50;5011746;28;20030;-76
2023/05/05 01:46:12;;;;;;;7.28;6.13;;;;;;;10.19;65.56;98293.47;4994361;28;20033;-75
2023/05/05 01:48:38;;;;;;;6.57;5.40;;;;;;;10.15;66.20;98295.00;5008934;28;20117;-76
2023/05/05 01:51:04;;;;;;;8.73;6.50;;;;;;;10.17;65.94;98299.09;4989722;28;20033;-76
2023/05/05 01:53:30;;;;;;;7.40;6.20;;;;;;;10.19;65.62;98286.22;4968589;28;20033;-75
2023/05/05 01:55:56;;;;;;;9.48;6.07;;;;;;;10.30;65.00;98289.91;4998931;28;20029;-76
2023/05/05 01:58:23;;;;;;;7.15;6.18;;;;;;;10.26;65.46;98291.44;4971610;28;20038;-76
2023/05/05 02:00:49;;;;;;;7.00;5.82;;;;;;;10.05;66.31;98295.59;4989182;28;20073;-76
2023/05/05 02:03:16;;;;;;;6.60;5.97;;;;;;;10.21;65.88;98288.66;5000845;28;20418;-76
2023/05/05 02:05:43;;;;;;;7.50;6.65;;;;;;;10.19;66.71;98296.16;4983859;28;20391;-76
2023/05/05 02:08:09;;;;;;;8.80;7.13;;;;;;;10.25;65.66;98295.19;4995482;28;20116;-77
2023/05/05 02:10:37;;;;;;;7.20;6.07;;;;;;;10.33;66.09;98292.13;5011722;28;20079;-76
2023/05/05 02:13:03;;;;;;;7.85;6.95;;;;;;;10.25;66.72;98292.50;4986495;28;20061;-76
2023/05/05 02:15:28;;;;;;;10.35;6.90;;;;;;;10.04;68.43;98298.50;5005255;28;20022;-76
2023/05/05 02:17:54;;;;;;;8.55;7.00;;;;;;;10.19;67.20;98296.97;4995383;28;20026;-76
2023/05/05 02:20:21;;;;;;;7.00;6.30;;;;;;;10.23;67.28;98297.31;4980470;28;20476;-75
2023/05/05 02:22:46;;;;;;;7.60;6.80;;;;;;;10.29;67.18;98301.75;4984186;28;20053;-76
2023/05/05 02:25:12;;;;;;;7.63;6.90;;;;;;;10.17;67.17;98287.50;4998168;28;20026;-76
2023/05/05 02:27:40;;;;;;;7.47;6.10;;;;;;;10.28;66.97;98290.16;5004540;28;20040;-76
2023/05/05 02:30:08;;;;;;;7.68;6.50;;;;;;;10.21;66.92;98285.97;4972564;28;20094;-76
2023/05/05 02:32:38;;;;;;;9.70;6.85;;;;;;;10.13;66.89;98289.03;4984933;28;20045;-76
2023/05/05 02:35:11;;;;;;;8.85;6.95;;;;;;;10.31;66.04;98289.69;4937741;28;1293483;-76
2023/05/05 02:37:43;;;;;;;10.20;7.25;;;;;;;10.22;66.95;98284.91;4984514;28;20174;-77
2023/05/05 02:40:12;;;;;;;8.75;6.75;;;;;;;10.22;66.13;98274.16;4990209;28;20184;-77
2023/05/05 02:42:41;;;;;;;8.98;6.13;;;;;;;10.10;65.85;98284.09;4977365;28;20026;-77
2023/05/05 02:45:17;;;;;;;9.00;6.28;;;;;;;10.18;66.28;98279.19;5000967;28;20037;-77
2023/05/05 02:47:46;;;;;;;7.55;6.85;;;;;;;10.13;67.54;98289.84;4987060;28;20496;-77
2023/05/05 02:50:11;;;;;;;7.25;6.25;;;;;;;10.07;68.00;98292.66;4970308;28;20025;-76
2023/05/05 02:52:43;;;;;;;8.55;7.03;;;;;;;10.06;68.15;98280.28;4968314;28;20680;-76
2023/05/05 02:55:11;;;;;;;7.35;6.35;;;;;;;10.17;67.28;98287.50;4984850;28;20026;-76
2023/05/05 02:58:05;;;;;;;9.45;7.07;;;;;;;10.15;67.30;98281.56;4984376;28;20022;-76
2023/05/05 03:00:44;;;;;;;7.28;5.90;;;;;;;10.24;67.41;98277.41;4972623;28;20065;-75
2023/05/05 03:03:20;;;;;;;7.57;6.47;;;;;;;10.07;67.38;98281.88;4963404;28;20034;-75
2023/05/05 03:06:04;;;;;;;8.65;6.15;;;;;;;9.77;68.59;98282.09;4986452;28;20045;-75
2023/05/05 03:08:37;;;;;;;9.40;6.55;;;;;;;9.93;68.75;98280.53;4984965;28;20084;-75
2023/05/05 03:11:05;;;;;;;9.13;7.03;;;;;;;10.00;68.63;98275.81;4982215;28;20049;-74
2023/05/05 03:13:36;;;;;;;7.80;5.78;;;;;;;10.06;67.88;98285.66;4979296;28;20034;-75
2023/05/05 03:16:05;;;;;;;8.07;6.80;;;;;;;10.02;68.28;98277.22;4951619;28;20036;-75
2023/05/05 03:18:33;;;;;;;7.57;6.03;;;;;;;10.05;66.47;98275.94;4989636;28;20018;-76
2023/05/05 03:21:07;;;;;;;6.60;5.85;;;;;;;10.13;67.68;98265.63;4969403;28;20030;-76
2023/05/05 03:23:35;;;;;;;5.75;4.68;;;;;;;10.18;65.81;98256.84;4985392;28;20040;-76
2023/05/05 03:26:02;;;;;;;7.75;4.95;;;;;;;10.22;64.78;98258.00;5000870;28;20076;-76
2023/05/05 03:28:31;;;;;;;7.68;4.60;;;;;;;10.24;64.99;98250.50;4967227;28;20037;-76
2023/05/05 03:31:01;;;;;;;5.78;4.72;;;;;;;10.21;65.00;98267.13;5001669;28;20022;-76
2023/05/05 03:33:29;;;;;;;7.20;4.63;;;;;;;10.07;65.28;98260.34;4989060;28;20057;-77
2023/05/05 03:35:57;;;;;;;8.75;5.20;;;;;;;9.45;66.72;98278.16;4996312;28;20550;-76
2023/05/05 03:38:23;;;;;;;5.82;5.15;;;;;;;9.89;66.84;98268.63;4995099;28;20040;-76
2023/05/05 03:40:48;;;;;;;5.82;5.18;;;;;;;9.98;66.52;98264.50;5002213;28;20082;-76
2023/05/05 03:43:18;;;;;;;6.78;4.93;;;;;;;10.12;65.77;98257.81;4993793;28;20471;-75
2023/05/05 03:45:44;;;;;;;5.85;4.80;;;;;;;9.87;66.16;98259.97;4992847;28;20058;-75
2023/05/05 03:48:10;;;;;;;5.47;4.78;;;;;;;9.72;66.17;98263.16;4981119;28;20054;-75
2023/05/05 03:50:37;;;;;;;6.50;5.22;;;;;;;9.74;67.73;98278.00;4967119;28;20074;-75
2023/05/05 03:53:02;;;;;;;5.95;5.00;;;;;;;9.81;66.90;98267.09;4970647;28;20484;-76
2023/05/05 03:55:28;;;;;;;7.13;5.57;;;;;;;9.92;67.28;98268.16;4986109;28;20077;-76
2023/05/05 03:57:53;;;;;;;8.77;5.65;;;;;;;9.91;67.55;98255.72;4999704;28;20105;-77
2023/05/05 04:00:18;;;;;;;7.32;5.53;;;;;;;9.87;68.07;98271.53;4984359;28;20034;-77
2023/05/05 04:02:44;;;;;;;6.75;5.20;;;;;;;9.99;67.86;98274.22;4996885;28;20369;-76
2023/05/05 04:05:12;;;;;;;9.23;5.50;;;;;;;10.00;67.50;98276.66;4984010;28;20089;-76
2023/05/05 04:07:37;;;;;;;5.80;5.30;;;;;;;10.16;67.40;98269.72;4995545;28;20026;-76
2023/05/05 04:10:03;;;;;;;5.85;5.25;;;;;;;10.21;67.30;98261.75;4986417;28;20129;-75
2023/05/05 04:12:29;;;;;;;7.75;5.32;;;;;;;10.38;67.09;98257.22;5014192;28;20056;-75
2023/05/05 04:14:55;;;;;;;6.65;5.10;;;;;;;10.18;67.97;98272.97;5004393;28;20034;-76
2023/05/05 04:17:20;;;;;;;7.28;5.45;;;;;;;10.19;66.09;98263.88;4983260;28;20033;-75
2023/05/05 04:19:47;;;;;;;9.73;5.30;;;;;;;10.37;65.70;98263.66;5004168;28;20035;-76
2023/05/05 04:22:12;;;;;;;8.60;5.20;;;;;;;10.37;65.95;98266.34;4991076;28;20022;-76
2023/05/05 04:24:38;;;;;;;6.30;4.95;;;;;;;10.49;66.24;98260.91;4979159;28;20105;-77
2023/05/05 04:27:04;;;;;;;8.15;4.57;;;;;;;10.41;66.91;98267.50;4991948;28;20034;-77
2023/05/05 04:29:29;;;;;;;9.30;4.90;;;;;;;10.74;65.53;98277.50;4979343;28;20120;-77
2023/05/05 04:31:55;;;;;;;6.05;4.82;;;;;;;10.74;65.40;98282.91;4983222;28;20029;-77
2023/05/05 04:34:21;;;;;;;5.30;4.80;;;;;;;10.73;66.38;98282.09;5003637;28;20089;-75
2023/05/05 04:36:47;;;;;;;6.47;5.53;;;;;;;10.67;67.23;98283.06;5011854;28;20033;-76
2023/05/05 04:39:13;;;;;;;7.88;5.40;;;;;;;10.59;65.26;98291.53;4999124;28;20022;-76
2023/05/05 04:41:39;;;;;;;6.97;5.38;;;;;;;10.66;63.44;98289.53;4986691;28;20022;-75
2023/05/05 04:44:05;;;;;;;6.72;4.95;;;;;;;10.72;65.13;98291.22;5005543;28;20506;-76
2023/05/05 04:46:33;;;;;;;6.60;5.07;;;;;;;10.99;64.16;98294.13;4988837;28;20065;-77
2023/05/05 04:48:58;;;;;;;8.40;5.40;;;;;;;11.07;64.37;98294.53;4996896;28;20042;-78
2023/05/05 04:51:25;;;;;;;5.80;5.20;;;;;;;11.23;64.14;98294.75;5001329;28;20036;-77
2023/05/05 04:53:50;;;;;;;9.55;6.30;;;;;;;11.37;63.84;98293.34;4987205;28;20038;-77
2023/05/05 04:56:16;;;;;;;6.85;5.32;;;;;;;11.30;65.45;98298.09;4976387;28;20027;-77
2023/05/05 04:58:41;;;;;;;7.32;5.65;;;;;;;11.42;64.85;98298.81;4990527;28;20030;-77
2023/05/05 05:01:06;;;;;;;7.65;5.63;;;;;;;11.52;64.91;98288.19;5002334;28;20451;-78
2023/05/05 05:03:32;;;;;;;7.50;5.90;;;;;;;11.65;64.27;98293.22;5014001;28;20484;-75
2023/05/05 05:05:57;;;;;;;8.05;4.90;;;;;;;11.62;64.62;98285.66;5014011;28;20092;-75
2023/05/05 05:08:23;;;;;;;8.23;5.38;;;;;;;11.49;64.53;98286.81;4997785;28;20046;-77
2023/05/05 05:10:48;;;;;;;6.93;5.22;;;;;;;11.54;63.74;98292.28;5000817;28;20028;-76
2023/05/05 05:13:13;;;;;;;6.53;5.40;;;;;;;11.66;64.46;98300.28;5003183;28;20488;-77
2023/05/05 05:15:39;;;;;;;5.45;4.95;;;;;;;11.60;64.53;98290.44;4971517;28;20118;-76
2023/05/05 05:18:05;;;;;;;8.00;5.40;;;;;;;11.60;65.12;98306.63;4987397;28;20034;-76
2023/05/05 05:20:32;;;;;;;7.57;5.57;;;;;;;11.66;64.48;98317.28;5009525;28;20061;-76
2023/05/05 05:22:57;;;;;;;7.32;5.35;;;;;;;11.81;63.44;98315.88;4974448;28;20042;-76
2023/05/05 05:25:23;;;;;;;9.30;5.40;;;;;;;11.71;64.49;98316.56;5006973;28;20555;-76
2023/05/05 05:27:49;;;;;;;5.50;4.90;;;;;;;11.82;64.68;98318.31;4974361;28;20129;-75
2023/05/05 05:30:15;;;;;;;6.22;5.18;;;;;;;11.93;62.86;98322.78;4976485;28;20029;-76
2023/05/05 05:32:40;;;;;;;5.70;4.97;;;;;;;12.19;62.56;98321.22;4986416;28;20034;-75
2023/05/05 05:35:06;;;;;;;6.35;5.38;;;;;;;12.18;65.87;98339.31;4970914;28;20034;-75
2023/05/05 05:37:33;;;;;;;7.60;6.22;;;;;;;11.96;67.92;98330.41;4995214;28;20037;-75
2023/05/05 05:39:59;;;;;;;8.95;5.72;;;;;;;11.88;67.29;98333.50;4980199;28;20030;-74
2023/05/05 05:42:26;;;;;;;6.88;5.13;;;;;;;11.82;65.65;98337.22;4977961;28;20034;-75
2023/05/05 05:44:51;;;;;;;5.30;4.80;;;;;;;12.25;64.52;98329.13;4990354;28;20554;-75
2023/05/05 05:47:17;;;;;;;8.38;5.18;;;;;;;12.18;65.20;98328.50;5003740;28;20506;-75
2023/05/05 05:49:43;;;;;;;6.25;5.30;;;;;;;12.33;62.72;98336.81;4980308;28;20476;-75
2023/05/05 05:52:09;;;;;;;8.43;4.88;;;;;;;12.30;60.70;98337.31;4977506;28;20062;-76
2023/05/05 05:54:35;;;;;;;7.35;5.50;;;;;;;12.32;60.00;98343.25;4973691;28;20026;-75
2023/05/05 05:57:01;;;;;;;6.45;4.88;;;;;;;12.68;57.87;98343.66;4978215;28;20495;-75
2023/05/05 05:59:27;;;;;;;6.50;4.63;;;;;;;12.80;57.35;98336.22;5009917;28;20033;-76
2023/05/05 06:01:54;;;;;;;6.88;4.93;;;;;;;13.14;55.99;98337.66;4995841;28;20061;-75
2023/05/05 06:04:19;;;;;;;6.20;5.47;;;;;;;13.19;56.77;98340.41;4994180;28;20028;-76
2023/05/05 06:06:45;;;;;;;6.97;5.40;;;;;;;13.30;57.37;98325.94;4996615;28;20117;-76
2023/05/05 06:09:10;;;;;;;6.20;5.20;;;;;;;13.36;56.38;98338.41;4996184;28;20027;-76
2023/05/05 06:11:36;;;;;;;9.60;7.10;;;;;;;13.54;58.18;98320.94;4993394;28;20034;-75
2023/05/05 06:14:01;;;;;;;7.68;5.63;;;;;;;13.63;56.63;98328.31;4990018;28;20053;-76
2023/05/05 06:16:27;;;;;;;10.10;5.70;;;;;;;13.64;56.22;98319.13;5003895;28;20037;-76
2023/05/05 06:18:52;;;;;;;8.25;5.35;;;;;;;13.59;58.50;98319.09;5000337;28;20022;-75
2023/05/05 06:21:19;;;;;;;7.68;5.80;;;;;;;13.80;58.35;98322.75;5013191;28;20036;-76
2023/05/05 06:23:48;;;;;;;7.30;4.78;;;;;;;14.23;56.96;98318.91;4979378;28;20026;-76
2023/05/05 06:26:14;;;;;;;6.72;5.28;;;;;;;14.50;56.41;98311.44;4987436;28;20108;-76
2023/05/05 06:28:40;;;;;;;6.13;4.97;;;;;;;14.77;54.01;98309.31;4999547;28;20034;-77
2023/05/05 06:31:06;;;;;;;5.43;4.68;;;;;;;14.93;53.60;98312.91;5001521;28;20035;-77
2023/05/05 06:33:31;;;;;;;6.75;4.70;;;;;;;15.06;53.43;98315.88;4991829;28;20074;-76
2023/05/05 06:35:56;;;;;;;8.05;5.35;;;;;;;15.12;51.93;98319.44;4993621;28;20042;-76
2023/05/05 06:38:22;;;;;;;6.10;4.40;;;;;;;14.80;50.82;98313.41;4996906;28;20029;-76
2023/05/05 06:40:48;;;;;;;6.30;4.22;;;;;;;15.12;51.21;98317.50;5001640;28;20049;-76
2023/05/05 06:43:14;;;;;;;5.00;4.47;;;;;;;14.96;50.62;98313.16;5005502;28;20076;-76
2023/05/05 06:45:44;;;;;;;6.00;4.57;;;;;;;15.18;50.90;98305.59;4973756;28;20119;-76
2023/05/05 06:48:10;;;;;;;6.90;5.00;;;;;;;14.79;50.50;98307.19;5004854;28;20186;-77
2023/05/05 06:50:35;;;;;;;9.27;4.97;;;;;;;14.72;50.70;98314.75;4987309;28;20460;-75
2023/05/05 06:53:01;;;;;;;7.35;4.57;;;;;;;14.71;50.28;98318.53;4998710;28;20108;-76
2023/05/05 06:55:26;;;;;;;9.90;5.03;;;;;;;14.97;48.78;98308.56;4997077;28;20022;-77
2023/05/05 06:57:52;;;;;;;7.45;4.97;;;;;;;15.04;49.59;98315.34;5008420;28;20472;-76
2023/05/05 07:00:18;;;;;;;7.70;5.13;;;;;;;15.28;48.53;98320.25;5002025;28;20037;-76
2023/05/05 07:02:43;;;;;;;7.45;4.93;;;;;;;15.48;50.88;98314.81;4995905;28;20529;-76
2023/05/05 07:05:09;;;;;;;8.55;5.25;;;;;;;15.27;48.16;98318.59;4999206;28;20022;-76
2023/05/05 07:07:35;;;;;;;7.65;5.13;;;;;;;15.57;49.79;98321.34;4972327;28;20038;-76
2023/05/05 07:10:00;;;;;;;9.93;5.72;;;;;;;15.98;47.79;98317.47;4987063;28;20022;-76
2023/05/05 07:12:28;;;;;;;7.25;5.57;;;;;;;15.84;49.92;98313.69;4994554;28;20038;-76
2023/05/05 07:14:53;;;;;;;10.60;6.13;;;;;;;15.98;49.17;98312.03;4975523;28;20022;-76
2023/05/05 07:17:19;;;;;;;8.45;6.05;;;;;;;15.92;48.51;98304.97;4997404;28;20109;-76
2023/05/05 07:19:44;;;;;;;8.23;5.65;;;;;;;16.18;48.62;98303.81;5002003;28;20396;-76
2023/05/05 07:22:09;;;;;;;8.13;6.10;;;;;;;16.39;47.51;98310.78;4972834;28;20153;-76
2023/05/05 07:24:35;;;;;;;9.38;6.20;;;;;;;16.36;48.08;98316.78;4986066;28;20072;-77
2023/05/05 07:27:00;;;;;;;9.30;6.40;;;;;;;16.53;47.18;98311.84;4998211;28;20042;-76
2023/05/05 07:29:25;;;;;;;9.82;5.75;;;;;;;16.71;47.63;98307.66;4994911;28;20479;-76
2023/05/05 07:31:51;;;;;;;10.77;6.45;;;;;;;16.73;48.11;98315.53;4998252;28;20418;-76
2023/05/05 07:34:16;;;;;;;10.35;7.35;;;;;;;16.73;48.23;98313.66;4984736;28;20094;-76
2023/05/05 07:36:43;;;;;;;9.85;6.72;;;;;;;16.73;48.00;98310.09;5004538;28;20046;-75
2023/05/05 07:39:08;;;;;;;10.85;6.07;;;;;;;17.15;48.79;98307.66;5001816;28;20024;-76
2023/05/05 07:41:33;;;;;;;10.48;6.57;;;;;;;17.13;48.00;98307.09;4978227;28;20490;-76
2023/05/05 07:44:00;;;;;;;8.82;6.35;;;;;;;17.20;47.97;98304.84;4991329;28;20033;-76
2023/05/05 07:46:25;;;;;;;7.25;5.93;;;;;;;17.22;46.68;98308.94;5004800;28;20061;-76
2023/05/05 07:48:50;;;;;;;9.88;6.55;;;;;;;17.60;45.23;98301.00;4955877;28;20055;-76
2023/05/05 07:51:16;;;;;;;8.10;6.07;;;;;;;17.72;46.80;98306.88;4975362;28;20400;-76
2023/05/05 07:53:41;;;;;;;12.63;6.28;;;;;;;17.65;48.19;98306.41;4992478;28;20431;-76
2023/05/05 07:56:07;;;;;;;10.18;6.00;;;;;;;17.37;47.08;98312.63;4990963;28;20030;-75
2023/05/05 07:58:33;;;;;;;9.55;6.10;;;;;;;17.60;49.23;98315.44;4968554;28;20018;-77
2023/05/05 08:00:59;;;;;;;8.65;6.40;;;;;;;17.42;45.74;98318.03;4997986;28;20444;-76
2023/05/05 08:03:25;;;;;;;26.48;8.38;;;;;;;17.83;46.89;98317.41;5001112;28;20030;-76
2023/05/05 08:05:52;;;;;;;34.42;9.38;;;;;;;18.01;44.42;98309.59;5005712;28;20493;-76
2023/05/05 08:08:18;;;;;;;14.48;6.55;;;;;;;17.85;44.46;98298.84;5001105;28;20037;-77
2023/05/05 08:10:43;;;;;;;14.25;6.38;;;;;;;18.07;44.44;98308.41;4997648;28;20042;-76
2023/05/05 08:13:09;;;;;;;10.85;6.70;;;;;;;18.32;46.50;98311.66;5002022;28;20037;-76
2023/05/05 08:15:34;;;;;;;9.70;6.50;;;;;;;18.42;44.11;98295.19;4994262;28;20045;-76
2023/05/05 08:17:59;;;;;;;18.98;7.78;;;;;;;18.32;43.71;98297.25;5010578;28;20022;-76
2023/05/05 08:20:27;;;;;;;30.55;9.48;;;;;;;18.59;46.24;98306.44;4976288;28;20076;-74
2023/05/05 08:22:52;;;;;;;9.52;6.80;;;;;;;18.57;46.23;98316.03;5003290;28;20030;-76
2023/05/05 08:25:18;;;;;;;13.43;7.35;;;;;;;18.80;44.14;98308.88;5007365;28;20037;-77
2023/05/05 08:27:43;;;;;;;10.90;7.07;;;;;;;18.81;42.97;98308.59;4984158;28;20209;-76
2023/05/05 08:30:09;;;;;;;11.95;7.28;;;;;;;18.82;44.31;98307.50;5003529;28;20034;-76
2023/05/05 08:32:35;;;;;;;9.75;7.07;;;;;;;19.00;43.77;98306.66;4996045;28;20023;-77
2023/05/05 08:35:02;;;;;;;10.30;6.85;;;;;;;19.17;45.65;98309.69;4987679;28;20042;-76
2023/05/05 08:37:28;;;;;;;11.88;7.10;;;;;;;19.30;45.29;98300.72;5000429;28;20553;-75
2023/05/05 08:39:53;;;;;;;9.82;7.57;;;;;;;19.27;43.41;98309.53;4978940;28;20054;-77
2023/05/05 08:42:18;;;;;;;13.25;7.38;;;;;;;19.11;42.08;98302.66;5000237;28;20034;-77
2023/05/05 08:44:44;;;;;;;10.73;7.97;;;;;;;18.66;41.96;98310.72;4997109;28;20038;-76
2023/05/05 08:47:09;;;;;;;9.02;6.53;;;;;;;18.95;44.11;98304.00;5002855;28;20033;-77
2023/05/05 08:49:44;;;;;;;35.67;8.45;;;;;;;19.21;44.11;98307.97;4990349;28;20082;-77
2023/05/05 08:52:12;;;;;;;20.35;6.97;;;;;;;19.79;42.40;98304.84;5001617;28;20489;-77
2023/05/05 08:54:44;;;;;;;13.95;7.45;;;;;;;19.01;43.42;98305.56;4987788;28;20034;-76
2023/05/05 08:57:11;;;;;;;10.63;6.68;;;;;;;18.84;44.28;98308.00;4997811;28;20049;-76
2023/05/05 08:59:37;;;;;;;11.43;7.70;;;;;;;19.39;46.34;98313.75;4971880;28;20022;-76
2023/05/05 09:02:03;;;;;;;12.18;7.68;;;;;;;19.31;40.93;98307.81;5003045;28;20056;-76
2023/05/05 09:04:28;;;;;;;11.38;7.10;;;;;;;19.00;46.33;98306.66;4994174;28;20459;-76
2023/05/05 09:06:57;;;;;;;11.77;6.82;;;;;;;19.09;48.22;98315.03;4989108;28;20120;-76
2023/05/05 09:09:22;;;;;;;9.15;6.95;;;;;;;19.53;43.01;98309.16;4997022;28;20068;-76
2023/05/05 09:11:47;;;;;;;12.70;7.05;;;;;;;19.39;44.91;98316.47;4989706;28;20509;-76
2023/05/05 09:14:13;;;;;;;15.40;7.50;;;;;;;19.58;45.94;98317.25;4978880;28;20040;-77
2023/05/05 09:16:42;;;;;;;10.40;6.75;;;;;;;19.46;43.27;98320.47;4989782;28;20048;-76
2023/05/05 09:19:07;;;;;;;10.20;7.00;;;;;;;20.14;43.59;98308.84;4994924;28;20030;-76
2023/05/05 09:21:33;;;;;;;11.88;7.35;;;;;;;18.88;45.72;98319.94;5006012;28;20052;-76
2023/05/05 09:24:11;;;;;;;10.48;7.18;;;;;;;18.92;46.29;98321.00;5000325;28;20052;-76
2023/05/05 09:26:39;;;;;;;9.43;7.57;;;;;;;19.05;42.52;98309.31;4983612;28;20077;-77
2023/05/05 09:29:05;;;;;;;10.23;7.28;;;;;;;19.62;46.50;98310.06;4986388;28;20042;-75
2023/05/05 09:31:31;;;;;;;10.98;6.80;;;;;;;19.17;43.60;98306.97;4999528;28;20045;-77
2023/05/05 09:33:59;;;;;;;9.63;6.90;;;;;;;19.80;46.73;98309.19;4984788;28;20032;-77
2023/05/05 09:36:46;;;;;;;10.43;6.80;;;;;;;19.80;43.70;98298.25;4984189;28;20053;-76
2023/05/05 09:39:13;;;;;;;10.10;7.03;;;;;;;20.04;45.29;98282.50;5003094;28;20031;-76
2023/05/05 09:41:40;;;;;;;12.27;8.40;;;;;;;19.68;44.64;98295.19;5006762;28;20380;-76
2023/05/05 09:44:06;;;;;;;13.15;8.07;;;;;;;20.41;45.32;98287.78;4988064;28;20458;-76
2023/05/05 09:46:32;;;;;;;10.07;7.63;;;;;;;20.79;41.72;98293.00;4999906;28;20025;-76
2023/05/05 09:49:15;;;;;;;10.48;7.68;;;;;;;20.78;40.63;98297.66;5002568;28;20503;-77
2023/05/05 09:51:40;;;;;;;12.60;7.10;;;;;;;21.08;41.60;98299.72;4977854;28;20124;-76
2023/05/05 09:54:06;;;;;;;12.05;7.50;;;;;;;20.99;42.23;98292.53;5006114;28;20061;-77
2023/05/05 09:56:41;;;;;;;11.55;8.40;;;;;;;21.42;40.06;98284.66;4996599;28;20038;-77
2023/05/05 09:59:10;;;;;;;12.55;7.97;;;;;;;21.65;40.18;98299.97;4983027;28;20558;-77
2023/05/05 10:01:36;;;;;;;11.65;7.85;;;;;;;21.24;39.92;98300.16;4984942;28;20030;-76
2023/05/05 10:04:02;;;;;;;11.10;7.80;;;;;;;21.45;40.51;98297.75;4998242;28;20034;-77
2023/05/05 10:06:42;;;;;;;11.70;7.95;;;;;;;21.76;44.10;98302.13;4984204;28;20026;-77
2023/05/05 10:09:07;;;;;;;12.07;8.25;;;;;;;20.78;42.15;98291.38;4996261;28;20038;-77
2023/05/05 10:11:33;;;;;;;14.90;9.05;;;;;;;20.88;42.90;98291.13;4994348;28;20038;-77
2023/05/05 10:13:59;;;;;;;14.00;8.65;;;;;;;20.38;44.79;98293.88;4979949;28;20041;-77
2023/05/05 10:16:26;;;;;;;11.43;7.55;;;;;;;20.75;44.51;98292.00;4983319;28;20034;-77
2023/05/05 10:18:51;;;;;;;13.30;8.30;;;;;;;21.28;41.17;98288.25;4987030;28;20061;-77
2023/05/05 10:21:19;;;;;;;10.50;7.63;;;;;;;21.63;41.26;98281.09;5003230;28;20030;-77
2023/05/05 10:23:53;;;;;;;14.98;8.57;;;;;;;21.90;39.54;98271.91;4995471;28;20097;-77
2023/05/05 10:26:18;;;;;;;15.05;9.25;;;;;;;21.59;39.47;98274.63;4993022;28;20053;-77
2023/05/05 10:28:51;;;;;;;12.18;8.73;;;;;;;21.58;39.16;98281.22;4989557;28;20516;-77
2023/05/05 10:31:20;;;;;;;18.05;9.05;;;;;;;21.40;39.71;98279.47;5005220;28;20080;-77
2023/05/05 10:33:57;;;;;;;12.60;8.00;;;;;;;21.87;40.93;98276.09;4983273;28;20440;-77
2023/05/05 10:36:23;;;;;;;10.82;7.70;;;;;;;22.26;39.75;98260.75;4999142;28;20038;-77
2023/05/05 10:38:49;;;;;;;11.02;7.43;;;;;;;22.31;40.74;98266.88;5005078;28;20034;-77
2023/05/05 10:41:15;;;;;;;11.82;8.10;;;;;;;22.33;39.46;98258.34;5006176;28;20041;-77
2023/05/05 10:43:41;;;;;;;14.63;8.02;;;;;;;23.01;37.79;98244.72;5000660;28;20386;-77
2023/05/05 10:46:06;;;;;;;10.60;7.40;;;;;;;22.77;38.90;98238.91;4978714;28;20136;-77
2023/05/05 10:48:32;;;;;;;10.30;7.85;;;;;;;22.12;43.17;98255.38;4968226;28;20068;-77
2023/05/05 10:51:27;;;;;;;11.52;8.13;;;;;;;22.09;38.95;98255.19;4997682;28;20038;-77
2023/05/05 10:54:00;;;;;;;10.73;7.78;;;;;;;22.27;38.96;98262.34;4988214;28;20045;-77
2023/05/05 10:56:31;;;;;;;11.43;7.72;;;;;;;21.96;42.26;98246.75;4976421;28;20030;-77
2023/05/05 10:58:56;;;;;;;11.85;7.95;;;;;;;22.40;42.78;98250.47;4973620;28;20039;-77
2023/05/05 11:01:32;;;;;;;13.90;8.05;;;;;;;22.67;40.44;98244.72;4976344;28;20030;-77
2023/05/05 11:04:20;;;;;;;13.18;7.55;;;;;;;23.02;40.74;98246.34;4977460;28;20121;-77
2023/05/05 11:07:08;;;;;;;15.75;8.88;;;;;;;22.58;38.04;98241.13;5000522;28;20034;-77
2023/05/05 11:09:40;;;;;;;11.50;7.47;;;;;;;22.30;39.49;98239.78;4987586;28;20037;-77
2023/05/05 11:12:06;;;;;;;12.55;8.10;;;;;;;22.26;41.29;98233.31;4963830;28;20062;-77
2023/05/05 11:14:32;;;;;;;13.52;8.00;;;;;;;22.14;42.00;98231.19;4975524;28;20060;-77
2023/05/05 11:16:57;;;;;;;13.73;8.68;;;;;;;22.41;42.33;98235.59;4976730;28;20042;-77
2023/05/05 11:19:55;;;;;;;15.50;7.65;;;;;;;22.28;39.91;98225.56;5003528;28;20026;-77
2023/05/05 11:22:20;;;;;;;10.57;7.93;;;;;;;22.18;40.01;98221.19;4994149;28;20056;-77
2023/05/05 11:24:46;;;;;;;12.20;8.40;;;;;;;22.69;38.36;98212.25;5003437;28;20026;-77
2023/05/05 11:27:12;;;;;;;13.32;8.60;;;;;;;22.99;38.69;98214.00;4998297;28;20483;-77
2023/05/05 11:30:02;;;;;;;12.07;7.32;;;;;;;24.29;38.05;98212.53;4980114;28;20105;-77
2023/05/05 11:32:27;;;;;;;10.25;7.18;;;;;;;24.04;40.65;98215.03;4980347;28;20038;-77
2023/05/05 11:34:53;;;;;;;12.13;7.45;;;;;;;24.30;40.50;98214.94;5006111;28;20022;-77